Time;durP1;ratioP1;P1;durP2;ratioP2;P2;SDS_P1;SDS_P2;PMS_P1;PMS_P2;Temp;Humidity;BMP_temperature;BMP_pressure;BME280_temperature;BME280_humidity;BME280_pressure;Samples;Min_cycle;Max_cycle;Signal;HPM_P1;HPM_P2
2023/03/04 00:00:46;;;;;;;1.90;1.70;;;;;;;;;;5085134;27;90261;-52
2023/03/04 00:03:15;;;;;;;2.00;1.57;;;;;;;;;;5086188;27;88861;-51
2023/03/04 00:05:43;;;;;;;4.47;1.43;;;;;;;;;;5082593;27;86975;-51
2023/03/04 00:08:12;;;;;;;3.20;1.97;;;;;;;;;;5085244;27;87107;-51
2023/03/04 00:10:41;;;;;;;4.00;1.43;;;;;;;;;;5090011;27;89340;-52
2023/03/04 00:13:10;;;;;;;3.10;2.03;;;;;;;;;;5086902;27;87953;-52
2023/03/04 00:15:38;;;;;;;6.33;1.97;;;;;;;;;;5087802;27;87126;-52
2023/03/04 00:18:06;;;;;;;1.60;1.43;;;;;;;;;;5083607;27;88118;-52
2023/03/04 00:20:34;;;;;;;5.03;1.90;;;;;;;;;;5084562;27;88288;-52
2023/03/04 00:23:03;;;;;;;4.10;1.70;;;;;;;;;;5083034;27;87922;-52
2023/03/04 00:25:32;;;;;;;2.77;2.23;;;;;;;;;;5084309;27;88020;-52
2023/03/04 00:28:02;;;;;;;6.57;2.33;;;;;;;;;;5085306;27;87034;-51
2023/03/04 00:30:30;;;;;;;2.07;1.77;;;;;;;;;;5083806;27;88178;-52
2023/03/04 00:32:58;;;;;;;2.03;1.30;;;;;;;;;;5084882;27;88895;-52
2023/03/04 00:35:27;;;;;;;3.50;1.77;;;;;;;;;;5082545;27;86952;-51
2023/03/04 00:37:55;;;;;;;2.33;1.40;;;;;;;;;;5082799;27;87162;-51
2023/03/04 00:40:23;;;;;;;4.37;1.80;;;;;;;;;;5083806;27;88058;-52
2023/03/04 00:42:52;;;;;;;3.87;1.90;;;;;;;;;;5088016;27;86620;-52
2023/03/04 00:45:21;;;;;;;2.50;1.33;;;;;;;;;;5082334;27;87670;-52
2023/03/04 00:47:50;;;;;;;2.17;1.73;;;;;;;;;;5082591;27;86939;-51
2023/03/04 00:50:18;;;;;;;3.10;1.83;;;;;;;;;;5084336;27;89249;-51
2023/03/04 00:52:46;;;;;;;3.97;1.87;;;;;;;;;;5081946;27;89818;-52
2023/03/04 00:55:15;;;;;;;2.20;1.73;;;;;;;;;;5084756;27;87789;-51
2023/03/04 00:57:43;;;;;;;4.27;1.73;;;;;;;;;;5086334;27;87137;-52
2023/03/04 01:00:12;;;;;;;1.70;1.20;;;;;;;;;;5085616;27;89165;-52
2023/03/04 01:02:42;;;;;;;1.70;1.20;;;;;;;;;;5083854;27;87811;-52
2023/03/04 01:05:10;;;;;;;1.30;1.03;;;;;;;;;;5086111;27;87036;-52
2023/03/04 01:07:38;;;;;;;2.47;1.83;;;;;;;;;;5086146;27;86298;-51
2023/03/04 01:10:07;;;;;;;1.50;0.87;;;;;;;;;;5079207;27;89073;-52
2023/03/04 01:12:36;;;;;;;0.80;0.80;;;;;;;;;;5081694;27;88880;-51
2023/03/04 01:15:04;;;;;;;2.93;1.27;;;;;;;;;;5083972;27;88714;-52
2023/03/04 01:17:33;;;;;;;3.87;1.13;;;;;;;;;;5082171;27;87279;-51
2023/03/04 01:20:02;;;;;;;1.77;1.10;;;;;;;;;;5082144;27;88744;-52
2023/03/04 01:22:31;;;;;;;2.97;1.27;;;;;;;;;;5089012;27;89043;-52
2023/03/04 01:24:59;;;;;;;3.33;1.57;;;;;;;;;;5082332;27;88524;-52
2023/03/04 01:27:27;;;;;;;1.73;1.30;;;;;;;;;;5088622;27;87041;-52
2023/03/04 01:29:55;;;;;;;1.57;1.10;;;;;;;;;;5085888;27;88165;-52
2023/03/04 01:32:24;;;;;;;2.27;1.00;;;;;;;;;;5085845;27;87580;-52
2023/03/04 01:34:52;;;;;;;5.07;1.20;;;;;;;;;;5083396;27;87072;-52
2023/03/04 01:37:22;;;;;;;4.83;1.23;;;;;;;;;;5082217;27;87066;-52
2023/03/04 01:39:50;;;;;;;1.37;0.90;;;;;;;;;;5077096;27;89068;-51
2023/03/04 01:42:19;;;;;;;1.57;1.00;;;;;;;;;;5081361;27;88567;-52
2023/03/04 01:44:47;;;;;;;1.83;0.93;;;;;;;;;;5084130;27;86964;-53
2023/03/04 01:47:16;;;;;;;2.30;0.90;;;;;;;;;;5081967;27;87104;-51
2023/03/04 01:49:44;;;;;;;2.33;0.83;;;;;;;;;;5084681;27;87950;-52
2023/03/04 01:52:12;;;;;;;2.57;1.27;;;;;;;;;;5080060;27;88817;-51
2023/03/04 01:54:42;;;;;;;2.17;0.87;;;;;;;;;;5084061;27;87038;-51
2023/03/04 01:57:16;;;;;;;1.23;1.13;;;;;;;;;;5083848;27;87169;-52
2023/03/04 01:59:44;;;;;;;1.73;1.00;;;;;;;;;;5085356;27;88786;-52
2023/03/04 02:02:12;;;;;;;3.17;1.40;;;;;;;;;;5081467;27;87547;-52
2023/03/04 02:04:41;;;;;;;2.23;0.93;;;;;;;;;;5081028;27;87927;-52
2023/03/04 02:07:09;;;;;;;4.63;1.27;;;;;;;;;;5082094;27;86976;-52
2023/03/04 02:09:38;;;;;;;0.93;0.50;;;;;;;;;;5081581;27;88589;-52
2023/03/04 02:12:07;;;;;;;2.03;0.87;;;;;;;;;;5082306;27;89142;-51
2023/03/04 02:14:36;;;;;;;0.50;0.50;;;;;;;;;;5081412;27;87017;-52
2023/03/04 02:17:04;;;;;;;0.87;0.83;;;;;;;;;;5085540;27;87123;-52
2023/03/04 02:19:36;;;;;;;0.93;0.80;;;;;;;;;;5083712;27;89055;-52
2023/03/04 02:22:05;;;;;;;1.30;0.90;;;;;;;;;;5082177;27;87826;-52
2023/03/04 02:24:34;;;;;;;1.07;0.73;;;;;;;;;;5083437;27;87684;-51
2023/03/04 02:27:03;;;;;;;1.17;1.03;;;;;;;;;;5080908;27;87005;-52
2023/03/04 02:29:32;;;;;;;3.27;0.90;;;;;;;;;;5081420;27;89137;-51
2023/03/04 02:32:00;;;;;;;1.73;0.70;;;;;;;;;;5081878;27;88760;-52
2023/03/04 02:34:29;;;;;;;1.93;0.50;;;;;;;;;;5087626;27;88580;-52
2023/03/04 02:36:57;;;;;;;1.83;0.97;;;;;;;;;;5077037;27;88062;-52
2023/03/04 02:39:28;;;;;;;1.00;0.73;;;;;;;;;;5077175;27;89272;-52
2023/03/04 02:41:56;;;;;;;1.53;0.77;;;;;;;;;;5078825;27;88992;-52
2023/03/04 02:44:27;;;;;;;4.40;0.70;;;;;;;;;;5080699;27;87217;-52
2023/03/04 02:46:55;;;;;;;1.60;0.70;;;;;;;;;;5084210;27;86375;-50
2023/03/04 02:49:24;;;;;;;0.80;0.70;;;;;;;;;;5080528;27;89099;-51
2023/03/04 02:51:52;;;;;;;1.20;0.80;;;;;;;;;;5080372;27;87271;-51
2023/03/04 02:54:21;;;;;;;1.70;0.50;;;;;;;;;;5084998;27;88041;-51
2023/03/04 02:56:51;;;;;;;0.43;0.43;;;;;;;;;;5080445;27;87042;-51
2023/03/04 02:59:19;;;;;;;0.90;0.70;;;;;;;;;;5083141;27;87023;-52
2023/03/04 03:01:49;;;;;;;2.37;0.70;;;;;;;;;;5081242;27;87545;-51
2023/03/04 03:04:17;;;;;;;2.83;1.10;;;;;;;;;;5079227;27;87063;-51
2023/03/04 03:06:46;;;;;;;1.27;0.60;;;;;;;;;;5083564;27;87022;-51
2023/03/04 03:09:14;;;;;;;0.80;0.77;;;;;;;;;;5082113;27;89174;-51
2023/03/04 03:11:42;;;;;;;0.77;0.60;;;;;;;;;;5084073;27;87811;-51
2023/03/04 03:14:11;;;;;;;0.57;0.43;;;;;;;;;;5077102;27;87070;-51
2023/03/04 03:16:39;;;;;;;1.33;0.63;;;;;;;;;;5078619;27;87090;-51
2023/03/04 03:19:09;;;;;;;4.00;0.70;;;;;;;;;;5085990;27;90149;-51
2023/03/04 03:21:37;;;;;;;0.93;0.60;;;;;;;;;;5082605;27;88996;-52
2023/03/04 03:24:05;;;;;;;2.77;0.60;;;;;;;;;;5077067;27;86930;-51
2023/03/04 03:26:33;;;;;;;1.20;0.70;;;;;;;;;;5077495;27;86988;-51
2023/03/04 03:29:02;;;;;;;2.23;0.87;;;;;;;;;;5079682;27;89349;-52
2023/03/04 03:31:30;;;;;;;1.13;0.43;;;;;;;;;;5079411;27;88878;-51
2023/03/04 03:33:59;;;;;;;0.43;0.43;;;;;;;;;;5085903;27;87000;-51
2023/03/04 03:36:28;;;;;;;1.77;0.80;;;;;;;;;;5086674;27;86336;-51
2023/03/04 03:38:57;;;;;;;0.80;0.60;;;;;;;;;;5079141;27;88100;-51
2023/03/04 03:41:25;;;;;;;0.43;0.43;;;;;;;;;;5084301;27;88427;-51
2023/03/04 03:43:53;;;;;;;1.63;0.80;;;;;;;;;;5083100;27;87996;-50
2023/03/04 03:46:22;;;;;;;0.57;0.57;;;;;;;;;;5084700;27;87084;-51
2023/03/04 03:48:50;;;;;;;0.50;0.50;;;;;;;;;;5083996;27;88163;-52
2023/03/04 03:51:18;;;;;;;0.83;0.50;;;;;;;;;;5085541;27;87817;-51
2023/03/04 03:53:48;;;;;;;1.03;1.00;;;;;;;;;;5086198;27;87314;-51
2023/03/04 03:56:16;;;;;;;1.37;0.80;;;;;;;;;;5082949;27;86886;-52
2023/03/04 03:58:44;;;;;;;1.00;0.70;;;;;;;;;;5084359;27;88003;-51
2023/03/04 04:01:13;;;;;;;1.37;0.90;;;;;;;;;;5084625;27;88626;-51
2023/03/04 04:03:41;;;;;;;0.40;0.40;;;;;;;;;;5084046;27;86835;-51
2023/03/04 04:06:09;;;;;;;0.67;0.50;;;;;;;;;;5083205;27;87219;-51
2023/03/04 04:08:38;;;;;;;1.03;0.70;;;;;;;;;;5083248;27;89120;-51
2023/03/04 04:11:09;;;;;;;2.77;1.00;;;;;;;;;;5093497;27;88912;-51
2023/03/04 04:13:38;;;;;;;0.73;0.57;;;;;;;;;;5084497;27;87166;-53
2023/03/04 04:16:07;;;;;;;0.87;0.43;;;;;;;;;;5083949;27;87520;-51
2023/03/04 04:18:35;;;;;;;3.47;0.97;;;;;;;;;;5083024;27;89496;-51
2023/03/04 04:21:03;;;;;;;1.30;0.50;;;;;;;;;;5082983;27;88867;-51
2023/03/04 04:23:32;;;;;;;0.53;0.50;;;;;;;;;;5078010;27;86959;-51
2023/03/04 04:26:00;;;;;;;2.53;0.67;;;;;;;;;;5083344;27;86406;-51
2023/03/04 04:28:30;;;;;;;0.93;0.50;;;;;;;;;;5084166;27;88053;-51
2023/03/04 04:30:58;;;;;;;1.40;0.50;;;;;;;;;;5085097;27;88797;-51
2023/03/04 04:33:26;;;;;;;2.27;0.73;;;;;;;;;;5082828;27;88017;-50
2023/03/04 04:35:55;;;;;;;0.40;0.40;;;;;;;;;;5084574;27;87147;-52
2023/03/04 04:38:24;;;;;;;0.80;0.70;;;;;;;;;;5078981;27;89249;-51
2023/03/04 04:40:53;;;;;;;0.53;0.53;;;;;;;;;;5086026;27;87822;-51
2023/03/04 04:43:21;;;;;;;0.43;0.30;;;;;;;;;;5082919;27;87028;-51
2023/03/04 04:45:51;;;;;;;2.00;0.60;;;;;;;;;;5082680;27;87037;-51
2023/03/04 04:48:19;;;;;;;0.87;0.77;;;;;;;;;;5083152;27;88126;-51
2023/03/04 04:50:47;;;;;;;2.20;0.40;;;;;;;;;;5079756;27;86955;-51
2023/03/04 04:53:16;;;;;;;0.57;0.30;;;;;;;;;;5085197;27;87143;-51
2023/03/04 04:55:44;;;;;;;0.67;0.57;;;;;;;;;;5084805;27;88414;-51
2023/03/04 04:58:12;;;;;;;1.23;0.30;;;;;;;;;;5074998;27;89306;-52
2023/03/04 05:00:41;;;;;;;0.40;0.40;;;;;;;;;;5082633;27;89875;-51
2023/03/04 05:03:10;;;;;;;0.40;0.27;;;;;;;;;;5084169;27;88078;-51
2023/03/04 05:05:39;;;;;;;0.53;0.40;;;;;;;;;;5079589;27;87227;-51
2023/03/04 05:08:07;;;;;;;0.93;0.50;;;;;;;;;;5085498;27;89073;-52
2023/03/04 05:10:35;;;;;;;0.40;0.40;;;;;;;;;;5084044;27;88830;-51
2023/03/04 05:13:04;;;;;;;1.37;0.60;;;;;;;;;;5083021;27;86933;-51
2023/03/04 05:15:32;;;;;;;0.30;0.30;;;;;;;;;;5085424;27;86308;-51
2023/03/04 05:18:00;;;;;;;0.63;0.50;;;;;;;;;;5085117;27;88040;-52
2023/03/04 05:20:30;;;;;;;1.27;0.80;;;;;;;;;;5081517;27;87795;-51
2023/03/04 05:22:58;;;;;;;1.10;0.63;;;;;;;;;;5082406;27;88494;-51
2023/03/04 05:25:27;;;;;;;1.47;0.70;;;;;;;;;;5083283;27;87274;-51
2023/03/04 05:27:55;;;;;;;0.97;0.60;;;;;;;;;;5077787;27;89214;-51
2023/03/04 05:30:23;;;;;;;1.13;0.90;;;;;;;;;;5077358;27;88861;-51
2023/03/04 05:32:51;;;;;;;1.97;0.63;;;;;;;;;;5077459;27;87402;-51
2023/03/04 05:35:20;;;;;;;3.20;0.70;;;;;;;;;;5075673;27;87562;-51
2023/03/04 05:37:49;;;;;;;1.40;0.70;;;;;;;;;;5079562;27;88159;-52
2023/03/04 05:40:18;;;;;;;0.43;0.40;;;;;;;;;;5082045;27;87907;-52
2023/03/04 05:42:46;;;;;;;3.23;0.70;;;;;;;;;;5081241;27;87960;-51
2023/03/04 05:45:14;;;;;;;1.50;0.90;;;;;;;;;;5083192;27;87035;-51
2023/03/04 05:47:43;;;;;;;2.23;1.10;;;;;;;;;;5084072;27;90272;-51
2023/03/04 05:50:12;;;;;;;1.37;1.07;;;;;;;;;;5084632;27;89761;-52
2023/03/04 05:52:40;;;;;;;4.23;0.50;;;;;;;;;;5078294;27;87000;-51
2023/03/04 05:55:10;;;;;;;1.80;0.40;;;;;;;;;;5084621;27;87212;-52
2023/03/04 05:57:39;;;;;;;3.50;0.90;;;;;;;;;;5081705;27;87871;-51
2023/03/04 06:00:08;;;;;;;2.67;0.90;;;;;;;;;;5082848;27;88939;-51
2023/03/04 06:02:36;;;;;;;0.90;0.50;;;;;;;;;;5083974;27;87936;-51
2023/03/04 06:05:05;;;;;;;3.20;0.90;;;;;;;;;;5078552;27;87373;-51
2023/03/04 06:07:33;;;;;;;1.97;0.77;;;;;;;;;;5080682;27;89174;-51
2023/03/04 06:10:01;;;;;;;2.83;0.90;;;;;;;;;;5081119;27;87970;-52
2023/03/04 06:12:31;;;;;;;0.87;0.60;;;;;;;;;;5080493;27;87991;-51
2023/03/04 06:14:59;;;;;;;0.87;0.63;;;;;;;;;;5080252;27;87105;-52
2023/03/04 06:17:28;;;;;;;0.70;0.60;;;;;;;;;;5081715;27;90350;-51
2023/03/04 06:19:56;;;;;;;0.50;0.37;;;;;;;;;;5081905;27;89021;-51
2023/03/04 06:22:24;;;;;;;1.50;0.83;;;;;;;;;;5084938;27;86998;-52
2023/03/04 06:24:53;;;;;;;0.80;0.80;;;;;;;;;;5085257;27;87527;-51
2023/03/04 06:27:21;;;;;;;1.60;0.50;;;;;;;;;;5087154;27;88244;-51
2023/03/04 06:29:50;;;;;;;1.47;0.97;;;;;;;;;;5083318;27;87563;-51
2023/03/04 06:32:19;;;;;;;0.87;0.70;;;;;;;;;;5082217;27;87043;-51
2023/03/04 06:34:47;;;;;;;1.60;0.60;;;;;;;;;;5081145;27;87009;-51
2023/03/04 06:37:16;;;;;;;3.50;0.70;;;;;;;;;;5083302;27;89109;-51
2023/03/04 06:39:44;;;;;;;3.97;0.60;;;;;;;;;;5080632;27;89931;-51
2023/03/04 06:42:13;;;;;;;0.43;0.43;;;;;;;;;;5081189;27;86972;-51
2023/03/04 06:44:41;;;;;;;2.50;0.70;;;;;;;;;;5080739;27;87286;-51
2023/03/04 06:47:10;;;;;;;1.47;0.77;;;;;;;;;;5080989;27;87809;-51
2023/03/04 06:49:39;;;;;;;0.60;0.60;;;;;;;;;;5084922;27;87115;-51
2023/03/04 06:52:10;;;;;;;2.63;0.83;;;;;;;;;;5081065;27;87061;-52
2023/03/04 06:54:38;;;;;;;2.00;0.97;;;;;;;;;;5076440;27;86320;-52
2023/03/04 06:57:06;;;;;;;1.10;0.53;;;;;;;;;;5082791;27;89225;-51
2023/03/04 06:59:35;;;;;;;1.37;0.93;;;;;;;;;;5080540;27;87868;-53
2023/03/04 07:02:03;;;;;;;4.23;0.77;;;;;;;;;;5083408;27;87954;-51
2023/03/04 07:04:33;;;;;;;0.20;0.20;;;;;;;;;;5080349;27;86998;-53
2023/03/04 07:07:01;;;;;;;0.30;0.30;;;;;;;;;;5082359;27;88110;-51
2023/03/04 07:09:29;;;;;;;0.77;0.50;;;;;;;;;;5082368;27;88881;-52
2023/03/04 07:11:58;;;;;;;0.57;0.57;;;;;;;;;;5084708;27;88492;-51
2023/03/04 07:14:26;;;;;;;0.40;0.40;;;;;;;;;;5090470;27;87050;-54
2023/03/04 07:16:55;;;;;;;1.03;0.60;;;;;;;;;;5086253;27;87983;-53
2023/03/04 07:19:23;;;;;;;0.90;0.20;;;;;;;;;;5102051;27;87842;-53
2023/03/04 07:21:53;;;;;;;1.30;0.37;;;;;;;;;;5074499;27;87734;-52
2023/03/04 07:24:21;;;;;;;1.60;0.63;;;;;;;;;;5092370;27;87357;-53
2023/03/04 07:26:49;;;;;;;0.40;0.40;;;;;;;;;;5084456;27;88025;-53
2023/03/04 07:29:18;;;;;;;0.40;0.40;;;;;;;;;;5086466;27;88812;-53
2023/03/04 07:31:46;;;;;;;2.03;0.40;;;;;;;;;;5084620;27;88826;-53
2023/03/04 07:34:15;;;;;;;0.50;0.50;;;;;;;;;;5087286;27;87108;-56
2023/03/04 07:36:43;;;;;;;0.67;0.67;;;;;;;;;;5083553;27;89094;-53
2023/03/04 07:39:13;;;;;;;0.57;0.40;;;;;;;;;;5068404;27;89194;-54
2023/03/04 07:41:41;;;;;;;2.17;0.33;;;;;;;;;;5085232;27;87208;-53
2023/03/04 07:44:09;;;;;;;1.90;0.50;;;;;;;;;;5084810;27;86169;-54
2023/03/04 07:46:40;;;;;;;0.40;0.40;;;;;;;;;;5084288;27;88073;-53
2023/03/04 07:49:08;;;;;;;0.80;0.50;;;;;;;;;;5083571;27;87808;-51
2023/03/04 07:51:37;;;;;;;0.40;0.40;;;;;;;;;;5091408;27;88075;-51
2023/03/04 07:54:05;;;;;;;0.93;0.33;;;;;;;;;;5094776;27;87099;-50
2023/03/04 07:56:35;;;;;;;0.80;0.33;;;;;;;;;;5065240;27;88160;-51
2023/03/04 07:59:03;;;;;;;1.70;0.40;;;;;;;;;;5065513;27;88923;-51
2023/03/04 08:01:32;;;;;;;0.10;0.10;;;;;;;;;;5102510;27;87533;-50
2023/03/04 08:04:00;;;;;;;0.77;0.43;;;;;;;;;;5103119;27;87119;-51
2023/03/04 08:06:29;;;;;;;0.73;0.30;;;;;;;;;;5090145;27;89261;-50
2023/03/04 08:08:57;;;;;;;0.40;0.40;;;;;;;;;;5084656;27;87770;-50
2023/03/04 08:11:26;;;;;;;2.10;0.70;;;;;;;;;;5084446;27;86887;-50
2023/03/04 08:13:55;;;;;;;1.60;0.20;;;;;;;;;;5085377;27;87015;-50
2023/03/04 08:16:24;;;;;;;0.20;0.20;;;;;;;;;;5083645;27;90275;-50
2023/03/04 08:18:53;;;;;;;0.40;0.40;;;;;;;;;;5103476;27;89843;-51
2023/03/04 08:21:22;;;;;;;1.03;0.43;;;;;;;;;;5103760;27;87031;-51
2023/03/04 08:23:50;;;;;;;0.30;0.30;;;;;;;;;;5103270;27;87022;-50
2023/03/04 08:26:19;;;;;;;1.20;0.30;;;;;;;;;;5105217;27;89144;-51
2023/03/04 08:28:48;;;;;;;0.30;0.20;;;;;;;;;;5101778;27;88879;-51
2023/03/04 08:31:18;;;;;;;0.50;0.40;;;;;;;;;;5084817;27;87323;-50
2023/03/04 08:33:46;;;;;;;0.43;0.40;;;;;;;;;;5085903;27;86466;-50
2023/03/04 08:36:15;;;;;;;0.30;0.30;;;;;;;;;;5099897;27;87863;-50
2023/03/04 08:38:43;;;;;;;0.13;0.13;;;;;;;;;;5104336;27;86882;-51
2023/03/04 08:41:11;;;;;;;0.10;0.10;;;;;;;;;;5104386;27;87912;-50
2023/03/04 08:43:40;;;;;;;0.30;0.30;;;;;;;;;;5102913;27;87113;-50
2023/03/04 08:46:08;;;;;;;0.20;0.20;;;;;;;;;;5103944;27;88078;-50
2023/03/04 08:48:38;;;;;;;0.30;0.30;;;;;;;;;;5104455;27;87735;-50
2023/03/04 08:51:10;;;;;;;1.07;0.47;;;;;;;;;;5094543;27;87030;-50
2023/03/04 08:53:38;;;;;;;0.27;0.27;;;;;;;;;;5089181;27;87000;-50
2023/03/04 08:56:07;;;;;;;0.10;0.10;;;;;;;;;;5088850;27;89160;-50
2023/03/04 08:58:35;;;;;;;0.27;0.20;;;;;;;;;;5083834;27;88739;-50
2023/03/04 09:01:04;;;;;;;0.20;0.10;;;;;;;;;;5083671;27;88064;-51
2023/03/04 09:03:32;;;;;;;1.73;0.40;;;;;;;;;;5083840;27;86914;-50
2023/03/04 09:06:02;;;;;;;0.70;0.30;;;;;;;;;;5083070;27;89034;-51
2023/03/04 09:08:30;;;;;;;0.60;0.27;;;;;;;;;;5083690;27;88617;-50
2023/03/04 09:10:59;;;;;;;0.10;0.10;;;;;;;;;;5083815;27;86945;-50
2023/03/04 09:13:28;;;;;;;0.30;0.30;;;;;;;;;;5084018;27;87032;-51
2023/03/04 09:15:57;;;;;;;0.60;0.40;;;;;;;;;;5083316;27;88216;-51
2023/03/04 09:18:25;;;;;;;0.23;0.20;;;;;;;;;;5082785;27;89020;-50
2023/03/04 09:20:54;;;;;;;0.40;0.40;;;;;;;;;;5088734;27;87101;-50
2023/03/04 09:23:23;;;;;;;0.20;0.20;;;;;;;;;;5084382;27;86534;-50
2023/03/04 09:25:52;;;;;;;0.20;0.20;;;;;;;;;;5083684;27;88236;-51
2023/03/04 09:28:20;;;;;;;0.20;0.20;;;;;;;;;;5083364;27;88861;-51
2023/03/04 09:30:48;;;;;;;3.33;1.00;;;;;;;;;;5094702;27;87939;-50
2023/03/04 09:33:17;;;;;;;2.07;0.63;;;;;;;;;;5099535;27;87107;-50
2023/03/04 09:35:47;;;;;;;0.20;0.20;;;;;;;;;;5078344;27;89087;-50
2023/03/04 09:38:16;;;;;;;0.20;0.20;;;;;;;;;;5098714;27;87759;-49
2023/03/04 09:40:46;;;;;;;0.27;0.23;;;;;;;;;;5081542;27;87065;-50
2023/03/04 09:43:18;;;;;;;0.10;0.10;;;;;;;;;;5086287;27;87354;-50
2023/03/04 09:45:48;;;;;;;0.10;0.10;;;;;;;;;;5074984;27;89188;-51
2023/03/04 09:48:17;;;;;;;0.10;0.10;;;;;;;;;;5065551;27;89045;-50
2023/03/04 09:50:47;;;;;;;0.20;0.20;;;;;;;;;;5081002;27;87122;-50
2023/03/04 09:53:18;;;;;;;0.10;0.10;;;;;;;;;;5062871;27;87029;-50
2023/03/04 09:55:49;;;;;;;0.30;0.20;;;;;;;;;;5061511;27;89047;-49
2023/03/04 09:58:22;;;;;;;0.47;0.20;;;;;;;;;;5062547;27;88893;-50
2023/03/04 10:00:52;;;;;;;0.13;0.13;;;;;;;;;;5065655;27;87062;-50
2023/03/04 10:03:21;;;;;;;0.93;0.30;;;;;;;;;;5062580;27;87084;-50
2023/03/04 10:05:51;;;;;;;0.20;0.20;;;;;;;;;;5061928;27;88066;-50
2023/03/04 10:08:27;;;;;;;0.30;0.30;;;;;;;;;;5062167;27;87940;-51
2023/03/04 10:10:58;;;;;;;0.30;0.30;;;;;;;;;;5076281;27;86917;-50
2023/03/04 10:13:31;;;;;;;0.20;0.20;;;;;;;;;;5062734;27;86313;-51
2023/03/04 10:15:59;;;;;;;0.20;0.20;;;;;;;;;;5061907;27;89168;-50
2023/03/04 10:18:28;;;;;;;0.10;0.10;;;;;;;;;;5074663;27;87064;-51
2023/03/04 10:20:57;;;;;;;0.10;0.10;;;;;;;;;;5062549;27;88144;-51
2023/03/04 10:23:26;;;;;;;0.20;0.20;;;;;;;;;;5065928;27;86955;-50
2023/03/04 10:25:54;;;;;;;2.00;0.30;;;;;;;;;;5091661;27;87958;-51
2023/03/04 10:28:25;;;;;;;0.17;0.17;;;;;;;;;;5073369;27;87952;-51
2023/03/04 10:30:56;;;;;;;0.40;0.30;;;;;;;;;;5086419;27;87209;-51
2023/03/04 10:33:25;;;;;;;0.20;0.20;;;;;;;;;;5061896;27;87013;-50
2023/03/04 10:35:54;;;;;;;1.20;0.10;;;;;;;;;;5061300;27;88138;-51
2023/03/04 10:38:22;;;;;;;0.13;0.10;;;;;;;;;;5078491;27;87954;-50
2023/03/04 10:40:50;;;;;;;0.40;0.13;;;;;;;;;;5078906;27;87087;-50
2023/03/04 10:43:19;;;;;;;0.20;0.20;;;;;;;;;;5077322;27;87607;-50
2023/03/04 10:45:49;;;;;;;0.23;0.23;;;;;;;;;;5084312;27;89072;-51
2023/03/04 10:48:18;;;;;;;0.20;0.20;;;;;;;;;;5085137;27;87699;-51
2023/03/04 10:50:47;;;;;;;0.10;0.10;;;;;;;;;;5086031;27;86912;-51
2023/03/04 10:53:33;;;;;;;0.77;0.20;;;;;;;;;;5086069;27;86916;-51
2023/03/04 10:56:02;;;;;;;0.63;0.33;;;;;;;;;;5085101;27;86987;-51
2023/03/04 10:58:30;;;;;;;0.20;0.20;;;;;;;;;;5086037;27;87900;-51
2023/03/04 11:01:04;;;;;;;0.50;0.27;;;;;;;;;;5086473;27;86964;-51
2023/03/04 11:03:33;;;;;;;0.20;0.20;;;;;;;;;;5086242;27;86267;-50
2023/03/04 11:06:08;;;;;;;1.63;0.50;;;;;;;;;;5084910;27;87131;-49
2023/03/04 11:08:36;;;;;;;0.73;0.43;;;;;;;;;;5085253;27;87019;-50
2023/03/04 11:11:11;;;;;;;0.30;0.27;;;;;;;;;;5065237;27;88060;-49
2023/03/04 11:13:39;;;;;;;0.20;0.20;;;;;;;;;;5074780;27;86924;-50
2023/03/04 11:16:22;;;;;;;0.20;0.20;;;;;;;;;;5086045;27;88219;-50
2023/03/04 11:18:51;;;;;;;3.10;0.60;;;;;;;;;;5086583;27;88977;-50
2023/03/04 11:21:20;;;;;;;0.67;0.20;;;;;;;;;;5085597;27;86708;-50
2023/03/04 11:23:50;;;;;;;0.20;0.20;;;;;;;;;;5085067;27;87030;-50
2023/03/04 11:26:19;;;;;;;0.20;0.20;;;;;;;;;;5085695;27;88966;-50
2023/03/04 11:28:47;;;;;;;2.23;0.50;;;;;;;;;;5086115;27;88906;-49
2023/03/04 11:31:18;;;;;;;0.67;0.40;;;;;;;;;;5085835;27;87020;-49
2023/03/04 11:33:47;;;;;;;2.00;0.83;;;;;;;;;;5085204;27;87033;-49
2023/03/04 11:36:22;;;;;;;1.97;1.10;;;;;;;;;;5083859;27;89211;-50
2023/03/04 11:38:51;;;;;;;3.00;1.07;;;;;;;;;;5084630;27;89619;-49
2023/03/04 11:41:21;;;;;;;1.93;0.70;;;;;;;;;;5085099;27;86985;-50
2023/03/04 11:43:49;;;;;;;1.93;1.10;;;;;;;;;;5085297;27;87080;-50
2023/03/04 11:46:30;;;;;;;2.07;0.67;;;;;;;;;;5085317;27;86948;-50
2023/03/04 11:49:02;;;;;;;1.50;0.83;;;;;;;;;;5085041;27;87762;-50
2023/03/04 11:51:32;;;;;;;2.37;0.87;;;;;;;;;;5084954;27;88218;-50
2023/03/04 11:54:03;;;;;;;2.70;0.93;;;;;;;;;;5085705;27;86390;-50
2023/03/04 11:56:32;;;;;;;1.70;0.70;;;;;;;;;;5083941;27;88515;-50
2023/03/04 11:59:07;;;;;;;3.20;1.20;;;;;;;;;;5084038;27;88234;-50
2023/03/04 12:01:38;;;;;;;2.80;0.97;;;;;;;;;;5084464;27;87717;-50
2023/03/04 12:04:28;;;;;;;5.00;0.93;;;;;;;;;;5084076;27;87058;-50
2023/03/04 12:07:00;;;;;;;2.40;0.83;;;;;;;;;;5084640;27;88961;-49
2023/03/04 12:09:32;;;;;;;0.97;0.47;;;;;;;;;;5084790;27;87547;-49
2023/03/04 12:12:03;;;;;;;0.50;0.47;;;;;;;;;;5085287;27;87038;-49
2023/03/04 12:14:32;;;;;;;0.83;0.50;;;;;;;;;;5084387;27;86981;-49
2023/03/04 12:17:19;;;;;;;1.30;0.40;;;;;;;;;;5084606;27;88111;-49
2023/03/04 12:19:52;;;;;;;0.60;0.33;;;;;;;;;;5084885;27;87721;-48
2023/03/04 12:22:27;;;;;;;0.30;0.30;;;;;;;;;;5084828;27;86707;-48
2023/03/04 12:25:00;;;;;;;0.97;0.50;;;;;;;;;;5084384;27;87037;-48
2023/03/04 12:27:31;;;;;;;0.57;0.37;;;;;;;;;;5083400;27;89206;-49
2023/03/04 12:30:04;;;;;;;0.77;0.50;;;;;;;;;;5085004;27;88892;-49
2023/03/04 12:32:35;;;;;;;0.83;0.50;;;;;;;;;;5084746;27;86896;-49
2023/03/04 12:35:09;;;;;;;0.83;0.23;;;;;;;;;;5084487;27;87047;-49
2023/03/04 12:37:46;;;;;;;1.57;0.60;;;;;;;;;;5083745;27;88095;-49
2023/03/04 12:40:27;;;;;;;0.50;0.40;;;;;;;;;;5084102;27;87963;-49
2023/03/04 12:43:01;;;;;;;0.57;0.47;;;;;;;;;;5084589;27;86795;-49
2023/03/04 12:45:31;;;;;;;0.67;0.37;;;;;;;;;;5084735;27;86280;-49
2023/03/04 12:48:01;;;;;;;0.37;0.37;;;;;;;;;;5083888;27;89108;-49
2023/03/04 12:50:35;;;;;;;0.40;0.30;;;;;;;;;;5083233;27;88042;-49
2023/03/04 12:53:08;;;;;;;0.80;0.63;;;;;;;;;;5079274;27;87979;-50
2023/03/04 12:55:37;;;;;;;0.10;0.10;;;;;;;;;;5083173;27;87098;-49
2023/03/04 12:58:06;;;;;;;0.50;0.30;;;;;;;;;;5076944;27;88909;-50
2023/03/04 13:00:36;;;;;;;1.10;0.27;;;;;;;;;;5063559;27;87809;-49
2023/03/04 13:03:07;;;;;;;4.80;0.50;;;;;;;;;;5061514;27;87582;-49
2023/03/04 13:05:45;;;;;;;0.97;0.57;;;;;;;;;;5061608;27;87225;-50
2023/03/04 13:08:16;;;;;;;1.23;0.93;;;;;;;;;;5065427;27;88415;-50
2023/03/04 13:10:44;;;;;;;1.90;0.50;;;;;;;;;;5083771;27;88773;-50
2023/03/04 13:13:27;;;;;;;0.60;0.30;;;;;;;;;;5081765;27;86993;-50
2023/03/04 13:16:02;;;;;;;0.50;0.30;;;;;;;;;;5080795;27;87131;-50
2023/03/04 13:18:34;;;;;;;0.33;0.33;;;;;;;;;;5083209;27;90129;-50
2023/03/04 13:21:08;;;;;;;0.67;0.50;;;;;;;;;;5083293;27;89064;-50
2023/03/04 13:23:36;;;;;;;2.27;0.40;;;;;;;;;;5094086;27;87032;-50
2023/03/04 13:26:20;;;;;;;0.47;0.33;;;;;;;;;;5102034;27;87030;-49
2023/03/04 13:28:52;;;;;;;0.80;0.50;;;;;;;;;;5098121;27;89267;-49
2023/03/04 13:31:23;;;;;;;0.37;0.37;;;;;;;;;;5080694;27;87681;-49
2023/03/04 13:33:58;;;;;;;0.27;0.27;;;;;;;;;;5098748;27;87103;-49
2023/03/04 13:36:28;;;;;;;1.10;0.30;;;;;;;;;;5088478;27;86364;-49
2023/03/04 13:39:00;;;;;;;2.93;0.40;;;;;;;;;;5082840;27;87007;-49
2023/03/04 13:41:32;;;;;;;0.13;0.13;;;;;;;;;;5099156;27;90155;-49
2023/03/04 13:44:00;;;;;;;0.17;0.17;;;;;;;;;;5088670;27;87967;-49
2023/03/04 13:46:39;;;;;;;0.13;0.13;;;;;;;;;;5083281;27;86850;-49
2023/03/04 13:49:08;;;;;;;0.77;0.20;;;;;;;;;;5082979;27;89256;-49
2023/03/04 13:51:40;;;;;;;3.20;0.20;;;;;;;;;;5086311;27;87836;-49
2023/03/04 13:54:08;;;;;;;0.20;0.20;;;;;;;;;;5098219;27;87048;-49
2023/03/04 13:56:37;;;;;;;0.20;0.20;;;;;;;;;;5103009;27;87155;-49
2023/03/04 13:59:24;;;;;;;0.93;0.20;;;;;;;;;;5099798;27;88603;-49
2023/03/04 14:01:56;;;;;;;0.43;0.20;;;;;;;;;;5082812;27;88915;-50
2023/03/04 14:04:25;;;;;;;0.30;0.30;;;;;;;;;;5084903;27;86993;-49
2023/03/04 14:06:57;;;;;;;0.90;0.30;;;;;;;;;;5062975;27;87016;-49
2023/03/04 14:09:25;;;;;;;0.20;0.20;;;;;;;;;;5076499;27;90053;-49
2023/03/04 14:11:54;;;;;;;1.00;0.60;;;;;;;;;;5103507;27;89965;-50
2023/03/04 14:14:23;;;;;;;0.47;0.20;;;;;;;;;;5090176;27;87154;-49
2023/03/04 14:16:52;;;;;;;0.93;0.37;;;;;;;;;;5103472;27;86940;-49
2023/03/04 14:19:23;;;;;;;0.60;0.37;;;;;;;;;;5091147;27;88748;-50
2023/03/04 14:21:51;;;;;;;0.63;0.27;;;;;;;;;;5082726;27;87873;-50
2023/03/04 14:24:21;;;;;;;0.87;0.40;;;;;;;;;;5085191;27;87024;-50
2023/03/04 14:26:49;;;;;;;1.07;0.30;;;;;;;;;;5092288;27;86306;-50
2023/03/04 14:29:22;;;;;;;0.20;0.20;;;;;;;;;;5088660;27;88160;-50
2023/03/04 14:31:50;;;;;;;0.10;0.10;;;;;;;;;;5097175;27;87821;-52
2023/03/04 14:34:21;;;;;;;0.20;0.20;;;;;;;;;;5099361;27;88720;-50
2023/03/04 14:36:49;;;;;;;0.67;0.53;;;;;;;;;;5088448;27;87413;-50
2023/03/04 14:39:17;;;;;;;1.30;0.50;;;;;;;;;;5092151;27;88127;-50
2023/03/04 14:41:47;;;;;;;0.67;0.50;;;;;;;;;;5102940;27;88852;-50
2023/03/04 14:44:18;;;;;;;0.70;0.40;;;;;;;;;;5101210;27;87066;-50
2023/03/04 14:46:47;;;;;;;1.17;0.50;;;;;;;;;;5102934;27;86912;-50
2023/03/04 14:49:34;;;;;;;0.43;0.30;;;;;;;;;;5100751;27;88236;-50
2023/03/04 14:52:02;;;;;;;4.13;0.70;;;;;;;;;;5092211;27;87650;-50
2023/03/04 14:54:34;;;;;;;0.40;0.40;;;;;;;;;;5091282;27;87108;-50
2023/03/04 14:57:22;;;;;;;0.50;0.40;;;;;;;;;;5079324;27;88477;-50